Time,TemperatureF,DewpointF,PressureIn,WindDirection,WindDirectionDegrees,WindSpeedMPH,WindSpeedGustMPH,Humidity,HourlyPrecipIn,Conditions,Clouds,dailyrainin,SoftwareType,DateUTC
2013-02-21 00:03:00,25.0,15.0,29.85,NNW,328,7.0,18.0,65,0.00,,,0.00,,2013-02-21 05:03:00,
2013-02-21 00:12:00,25.0,15.0,29.85,NNW,328,7.0,18.0,65,0.00,,,0.00,,2013-02-21 05:12:00,
2013-02-21 00:22:00,24.0,15.0,29.85,West,262,7.0,28.0,67,0.00,,,0.00,,2013-02-21 05:22:00,
2013-02-21 00:36:00,24.0,15.0,29.85,SW,231,9.0,18.0,67,0.00,,,0.00,,2013-02-21 05:36:00,
2013-02-21 00:54:00,24.0,15.0,29.85,SE,140,2.0,13.0,69,0.00,,,0.00,,2013-02-21 05:54:00,
2013-02-21 01:01:00,24.0,16.0,29.86,SW,218,4.0,10.0,70,0.00,,,0.00,,2013-02-21 06:01:00,
2013-02-21 01:21:00,24.0,16.0,29.85,WNW,282,2.0,10.0,72,0.00,,,0.00,,2013-02-21 06:21:00,
2013-02-21 01:31:00,24.0,16.0,29.85,NW,304,5.0,17.0,70,0.00,,,0.00,,2013-02-21 06:31:00,
2013-02-21 01:51:00,23.0,15.0,29.85,WNW,292,6.0,24.0,71,0.00,,,0.00,,2013-02-21 06:51:00,
2013-02-21 02:01:00,23.0,16.0,29.85,WNW,293,8.0,22.0,73,0.00,,,0.00,,2013-02-21 07:01:00,
2013-02-21 02:11:00,23.0,13.0,29.87,SW,224,8.0,28.0,66,0.00,,,0.00,,2013-02-21 07:11:00,
2013-02-21 02:21:00,23.0,13.0,29.87,SW,224,8.0,28.0,66,0.00,,,0.00,,2013-02-21 07:21:00,
2013-02-21 02:32:00,23.0,13.0,29.88,ENE,60,4.0,19.0,66,0.00,,,0.00,,2013-02-21 07:32:00,
2013-02-21 02:42:00,22.0,11.0,29.88,NNW,339,10.0,21.0,63,0.00,,,0.00,,2013-02-21 07:42:00,
2013-02-21 02:52:00,22.0,11.0,29.88,NNW,339,10.0,21.0,63,0.00,,,0.00,,2013-02-21 07:52:00,
2013-02-21 03:02:00,21.0,10.0,29.87,NW,312,3.0,18.0,63,0.00,,,0.00,,2013-02-21 08:02:00,
2013-02-21 03:11:00,21.0,10.0,29.87,NW,312,3.0,18.0,63,0.00,,,0.00,,2013-02-21 08:11:00,
2013-02-21 03:21:00,21.0,10.0,29.87,WNW,290,2.0,14.0,61,0.00,,,0.00,,2013-02-21 08:21:00,
2013-02-21 03:32:00,21.0,9.0,29.88,NE,50,5.0,15.0,59,0.00,,,0.00,,2013-02-21 08:32:00,
2013-02-21 03:42:00,21.0,9.0,29.88,NE,50,5.0,15.0,59,0.00,,,0.00,,2013-02-21 08:42:00,
2013-02-21 03:52:00,21.0,9.0,29.88,SSE,152,7.0,29.0,58,0.00,,,0.00,,2013-02-21 08:52:00,
2013-02-21 04:02:00,20.0,7.0,29.87,North,354,18.0,34.0,56,0.00,,,0.00,,2013-02-21 09:02:00,
2013-02-21 04:11:00,20.0,7.0,29.87,North,354,18.0,34.0,56,0.00,,,0.00,,2013-02-21 09:11:00,
2013-02-21 04:22:00,20.0,7.0,29.87,WNW,302,8.0,30.0,56,0.00,,,0.00,,2013-02-21 09:22:00,
2013-02-21 04:32:00,19.0,7.0,29.89,NW,316,9.0,27.0,58,0.00,,,0.00,,2013-02-21 09:32:00,
2013-02-21 04:42:00,19.0,7.0,29.89,NW,316,9.0,27.0,58,0.00,,,0.00,,2013-02-21 09:42:00,
2013-02-21 04:51:00,19.0,7.0,29.88,WNW,300,7.0,23.0,58,0.00,,,0.00,,2013-02-21 09:51:00,
2013-02-21 05:01:00,18.0,6.0,29.90,NNE,14,10.0,25.0,58,0.00,,,0.00,,2013-02-21 10:01:00,
2013-02-21 05:11:00,18.0,6.0,29.90,NNE,14,10.0,25.0,58,0.00,,,0.00,,2013-02-21 10:11:00,
2013-02-21 05:21:00,17.0,5.0,29.89,WNW,295,11.0,31.0,59,0.00,,,0.00,,2013-02-21 10:21:00,
2013-02-21 05:31:00,17.0,5.0,29.89,NW,309,12.0,34.0,58,0.00,,,0.00,,2013-02-21 10:31:00,
2013-02-21 05:51:00,17.0,5.0,29.90,WNW,285,7.0,23.0,59,0.00,,,0.00,,2013-02-21 10:51:00,
2013-02-21 06:01:00,17.0,4.0,29.88,West,276,7.0,21.0,57,0.00,,,0.00,,2013-02-21 11:01:00,
2013-02-21 06:21:00,17.0,4.0,29.89,West,280,7.0,23.0,55,0.00,,,0.00,,2013-02-21 11:21:00,
2013-02-21 06:31:00,18.0,5.0,29.89,ENE,61,2.0,24.0,55,0.00,,,0.00,,2013-02-21 11:31:00,
2013-02-21 06:51:00,17.0,3.0,29.90,NNE,32,2.0,7.0,54,0.00,,,0.00,,2013-02-21 11:51:00,
2013-02-21 07:52:00,17.0,5.0,29.93,NNE,23,0.0,1.0,59,0.00,,,0.00,,2013-02-21 12:52:00,
2013-02-21 08:02:00,17.0,6.0,29.94,NW,321,0.0,2.0,60,0.00,,,0.00,,2013-02-21 13:02:00,
2013-02-21 08:22:00,18.0,5.0,29.95,NE,53,1.0,5.0,56,0.00,,,0.00,,2013-02-21 13:22:00,
2013-02-21 08:32:00,19.0,6.0,29.96,NNE,19,0.0,6.0,56,0.00,,,0.00,,2013-02-21 13:32:00,
2013-02-21 08:51:00,19.0,5.0,29.97,North,11,0.0,2.0,54,0.00,,,0.00,,2013-02-21 13:51:00,
2013-02-21 09:02:00,19.0,5.0,29.97,NW,311,8.0,19.0,54,0.00,,,0.00,,2013-02-21 14:02:00,
2013-02-21 09:22:00,19.0,7.0,29.97,NNW,347,7.0,17.0,58,0.00,,,0.00,,2013-02-21 14:22:00,
2013-02-21 09:32:00,18.0,6.0,29.97,WNW,293,9.0,19.0,59,0.00,,,0.00,,2013-02-21 14:32:00,
2013-02-21 09:52:00,19.0,7.0,29.97,NW,319,9.0,20.0,58,0.00,,,0.00,,2013-02-21 14:52:00,
2013-02-21 10:02:00,19.0,6.0,29.98,WNW,293,10.0,22.0,57,0.00,,,0.00,,2013-02-21 15:02:00,
2013-02-21 10:21:00,20.0,8.0,29.98,NW,319,7.0,17.0,58,0.00,,,0.00,,2013-02-21 15:21:00,
2013-02-21 10:32:00,20.0,8.0,29.98,West,259,3.0,15.0,58,0.00,,,0.00,,2013-02-21 15:32:00,
2013-02-21 10:52:00,20.0,7.0,29.99,NNW,330,5.0,16.0,57,0.00,,,0.00,,2013-02-21 15:52:00,
2013-02-21 11:02:00,21.0,7.0,30.00,NW,322,5.0,15.0,55,0.00,,,0.00,,2013-02-21 16:02:00,
2013-02-21 11:12:00,21.0,7.0,30.00,WNW,288,7.0,15.0,54,0.00,,,0.00,,2013-02-21 16:12:00,
2013-02-21 11:22:00,21.0,7.0,30.00,WNW,288,7.0,15.0,54,0.00,,,0.00,,2013-02-21 16:22:00,
2013-02-21 11:32:00,21.0,7.0,30.00,NNW,342,9.0,18.0,53,0.00,,,0.00,,2013-02-21 16:32:00,
2013-02-21 11:42:00,23.0,8.0,30.00,SW,225,6.0,21.0,52,0.00,,,0.00,,2013-02-21 16:42:00,
2013-02-21 11:52:00,23.0,8.0,30.00,SW,225,6.0,21.0,52,0.00,,,0.00,,2013-02-21 16:52:00,
2013-02-21 12:02:00,22.0,7.0,30.01,WNW,302,9.0,26.0,52,0.00,,,0.00,,2013-02-21 17:02:00,
2013-02-21 12:21:00,22.0,8.0,30.01,West,263,9.0,18.0,53,0.00,,,0.00,,2013-02-21 17:21:00,
2013-02-21 12:32:00,23.0,9.0,30.02,WNW,290,4.0,14.0,54,0.00,,,0.00,,2013-02-21 17:32:00,
2013-02-21 12:52:00,23.0,9.0,30.02,NNW,328,6.0,14.0,54,0.00,,,0.00,,2013-02-21 17:52:00,
2013-02-21 13:02:00,23.0,9.0,30.02,WNW,287,4.0,16.0,55,0.00,,,0.00,,2013-02-21 18:02:00,
2013-02-21 13:22:00,23.0,9.0,30.02,WNW,293,4.0,12.0,55,0.00,,,0.00,,2013-02-21 18:22:00,
2013-02-21 13:32:00,24.0,11.0,30.03,NW,322,5.0,13.0,56,0.00,,,0.00,,2013-02-21 18:32:00,
2013-02-21 13:51:00,25.0,11.0,30.03,NW,305,7.0,14.0,55,0.00,,,0.00,,2013-02-21 18:51:00,
2013-02-21 14:02:00,25.0,10.0,30.04,NNW,345,9.0,18.0,53,0.00,,,0.00,,2013-02-21 19:02:00,
2013-02-21 14:21:00,24.0,10.0,30.05,NNW,331,10.0,20.0,54,0.00,,,0.00,,2013-02-21 19:21:00,
2013-02-21 14:32:00,24.0,10.0,30.06,NNW,333,9.0,18.0,54,0.00,,,0.00,,2013-02-21 19:32:00,
2013-02-21 14:52:00,24.0,11.0,30.07,NNW,340,4.0,19.0,56,0.00,,,0.00,,2013-02-21 19:52:00,
2013-02-21 15:01:00,24.0,10.0,30.08,North,8,13.0,22.0,55,0.00,,,0.00,,2013-02-21 20:01:00,
2013-02-21 15:11:00,24.0,11.0,30.09,NE,54,5.0,17.0,56,0.00,,,0.00,,2013-02-21 20:11:00,
2013-02-21 15:21:00,24.0,11.0,30.09,NE,54,5.0,17.0,56,0.00,,,0.00,,2013-02-21 20:21:00,
2013-02-21 15:32:00,24.0,11.0,30.10,NNW,347,4.0,15.0,58,0.00,,,0.00,,2013-02-21 20:32:00,
2013-02-21 15:52:00,24.0,11.0,30.11,NE,50,4.0,10.0,57,0.00,,,0.00,,2013-02-21 20:52:00,
2013-02-21 16:02:00,25.0,12.0,30.11,NNW,331,6.0,17.0,56,0.00,,,0.00,,2013-02-21 21:02:00,
2013-02-21 16:12:00,25.0,12.0,30.13,NNE,20,7.0,19.0,56,0.00,,,0.00,,2013-02-21 21:12:00,
2013-02-21 16:22:00,25.0,12.0,30.13,NNE,20,7.0,19.0,56,0.00,,,0.00,,2013-02-21 21:22:00,
2013-02-21 16:32:00,25.0,12.0,30.14,NW,326,9.0,19.0,58,0.00,,,0.00,,2013-02-21 21:32:00,
2013-02-21 16:42:00,24.0,13.0,30.16,North,349,7.0,16.0,61,0.00,,,0.00,,2013-02-21 21:42:00,
2013-02-21 16:52:00,24.0,13.0,30.16,North,349,7.0,16.0,61,0.00,,,0.00,,2013-02-21 21:52:00,
2013-02-21 17:21:00,24.0,12.0,30.18,NW,326,4.0,15.0,60,0.00,,,0.00,,2013-02-21 22:21:00,
2013-02-21 17:32:00,24.0,13.0,30.19,WNW,293,3.0,21.0,61,0.00,,,0.00,,2013-02-21 22:32:00,
2013-02-21 17:52:00,24.0,13.0,30.19,North,4,6.0,17.0,62,0.00,,,0.00,,2013-02-21 22:52:00,
2013-02-21 18:01:00,25.0,13.0,30.21,ENE,63,6.0,23.0,61,0.00,,,0.00,,2013-02-21 23:01:00,
2013-02-21 18:21:00,25.0,15.0,30.21,NNW,345,8.0,21.0,64,0.00,,,0.00,,2013-02-21 23:21:00,
2013-02-21 18:32:00,25.0,15.0,30.22,NNW,328,14.0,23.0,65,0.00,,,0.00,,2013-02-21 23:32:00,
2013-02-21 18:52:00,26.0,16.0,30.23,NNW,330,9.0,18.0,66,0.00,,,0.00,,2013-02-21 23:52:00,
2013-02-21 19:02:00,26.0,16.0,30.24,NW,325,8.0,19.0,65,0.00,,,0.00,,2013-02-22 00:02:00,
2013-02-21 19:22:00,27.0,17.0,30.24,NNW,343,11.0,26.0,65,0.00,,,0.00,,2013-02-22 00:22:00,
2013-02-21 19:32:00,27.0,16.0,30.25,NE,42,10.0,31.0,64,0.00,,,0.00,,2013-02-22 00:32:00,
2013-02-21 19:52:00,28.0,17.0,30.26,ENE,63,6.0,23.0,63,0.00,,,0.00,,2013-02-22 00:52:00,
2013-02-21 20:01:00,27.0,16.0,30.28,NW,319,8.0,22.0,64,0.00,,,0.00,,2013-02-22 01:01:00,
2013-02-21 20:22:00,27.0,16.0,30.29,NE,36,7.0,22.0,64,0.00,,,0.00,,2013-02-22 01:22:00,
2013-02-21 20:32:00,27.0,17.0,30.31,ENE,72,5.0,13.0,65,0.00,,,0.00,,2013-02-22 01:32:00,
2013-02-21 20:51:00,27.0,17.0,30.32,NE,38,7.0,15.0,66,0.00,,,0.00,,2013-02-22 01:51:00,
2013-02-21 21:02:00,27.0,17.0,30.33,North,4,9.0,23.0,66,0.00,,,0.00,,2013-02-22 02:02:00,
2013-02-21 21:21:00,27.0,18.0,30.34,North,356,4.0,26.0,67,0.00,,,0.00,,2013-02-22 02:21:00,
2013-02-21 21:32:00,27.0,18.0,30.33,NW,326,7.0,18.0,68,0.00,,,0.00,,2013-02-22 02:32:00,
2013-02-21 21:52:00,27.0,18.0,30.34,West,272,5.0,21.0,68,0.00,,,0.00,,2013-02-22 02:52:00,
2013-02-21 22:02:00,27.0,18.0,30.35,SW,229,6.0,17.0,69,0.00,,,0.00,,2013-02-22 03:02:00,
2013-02-21 22:21:00,26.0,18.0,30.35,NW,322,5.0,24.0,71,0.00,,,0.00,,2013-02-22 03:21:00,
2013-02-21 22:32:00,26.0,18.0,30.36,NNW,334,5.0,14.0,72,0.00,,,0.00,,2013-02-22 03:32:00,
2013-02-21 22:52:00,26.0,19.0,30.36,North,356,9.0,16.0,73,0.00,,,0.00,,2013-02-22 03:52:00,
2013-02-21 23:02:00,26.0,19.0,30.37,North,8,4.0,12.0,73,0.00,,,0.00,,2013-02-22 04:02:00,
2013-02-21 23:21:00,26.0,19.0,30.38,North,11,3.0,10.0,74,0.00,,,0.00,,2013-02-22 04:21:00,
2013-02-21 23:32:00,26.0,19.0,30.39,NW,321,3.0,6.0,74,0.00,,,0.00,,2013-02-22 04:32:00,
2013-02-21 23:42:00,26.0,19.0,30.39,NW,321,3.0,6.0,74,0.00,,,0.00,,2013-02-22 04:42:00,
2013-02-21 23:51:00,25.0,19.0,30.40,ENE,72,2.0,7.0,76,0.00,,,0.00,,2013-02-22 04:51:00,